createdAt,value
2019-04-22T00:01:28.607Z,7.50
2019-04-22T00:04:01.391Z,7.40
2019-04-22T00:06:51.595Z,7.40
2019-04-22T00:09:24.016Z,7.30
2019-04-22T00:11:54.592Z,7.10
2019-04-22T00:14:15.074Z,7.10
2019-04-22T00:16:52.830Z,7.10
2019-04-22T00:19:24.349Z,7.00
2019-04-22T00:22:01.206Z,6.90
2019-04-22T00:24:20.473Z,6.80
2019-04-22T00:26:51.810Z,6.80
2019-04-22T00:29:46.698Z,6.80
2019-04-22T00:31:52.865Z,6.70
2019-04-22T00:34:22.507Z,6.70
2019-04-22T00:36:54.860Z,6.70
2019-04-22T00:39:28.401Z,6.70
2019-04-22T00:42:00.091Z,6.70
2019-04-22T00:44:33.341Z,6.60
2019-04-22T00:47:00.604Z,6.50
2019-04-22T00:52:03.283Z,6.40
2019-04-22T00:54:28.412Z,6.30
2019-04-22T00:56:59.121Z,6.40
2019-04-22T00:59:23.326Z,6.50
2019-04-22T01:02:00.704Z,6.50
2019-04-22T01:04:35.225Z,6.50
2019-04-22T01:07:00.760Z,6.30
2019-04-22T01:09:34.703Z,6.10
2019-04-22T01:12:04.085Z,5.90
2019-04-22T01:14:29.444Z,5.80
2019-04-22T01:17:03.085Z,5.90
2019-04-22T01:19:29.556Z,5.90
2019-04-22T01:21:58.535Z,6.00
2019-04-22T01:24:26.484Z,6.10
2019-04-22T01:26:53.718Z,6.20
2019-04-22T01:29:19.690Z,6.10
2019-04-22T01:31:40.217Z,6.00
2019-04-22T01:34:23.423Z,6.00
2019-04-22T01:36:58.699Z,5.80
2019-04-22T01:39:39.055Z,5.80
2019-04-22T01:44:38.822Z,5.60
2019-04-22T01:47:08.158Z,5.40
2019-04-22T01:49:38.315Z,5.30
2019-04-22T01:52:11.541Z,5.30
2019-04-22T01:54:43.292Z,5.30
2019-04-22T01:57:04.877Z,5.30
2019-04-22T01:59:28.642Z,5.30
2019-04-22T02:02:02.628Z,5.20
2019-04-22T02:04:50.166Z,5.20
2019-04-22T02:07:14.044Z,5.20
2019-04-22T02:09:47.578Z,5.20
2019-04-22T02:14:39.352Z,5.10
2019-04-22T02:17:09.178Z,5.10
2019-04-22T02:19:37.820Z,5.10
2019-04-22T02:22:07.054Z,5.10
2019-04-22T02:29:52.290Z,5.10
2019-04-22T02:32:24.804Z,5.00
2019-04-22T02:34:47.378Z,5.00
2019-04-22T02:37:18.769Z,5.10
2019-04-22T02:39:52.794Z,5.10
2019-04-22T02:44:43.234Z,4.80
2019-04-22T02:49:45.170Z,4.60
2019-04-22T02:52:20.330Z,4.60
2019-04-22T02:54:49.395Z,4.50
2019-04-22T02:57:22.426Z,4.40
2019-04-22T02:59:52.621Z,4.50
2019-04-22T03:04:43.756Z,4.60
2019-04-22T03:07:20.780Z,4.50
2019-04-22T03:09:51.789Z,4.50
2019-04-22T03:22:16.112Z,4.30
2019-04-22T03:25:05.882Z,4.30
2019-04-22T03:33:05.486Z,4.30
2019-04-22T03:42:52.036Z,4.20
2019-04-22T03:48:04.398Z,4.00
2019-04-22T03:52:39.112Z,4.00
2019-04-22T04:00:34.846Z,4.00
2019-04-22T04:02:45.910Z,3.90
2019-04-22T04:05:29.568Z,3.90
2019-04-22T04:08:00.366Z,3.90
2019-04-22T04:10:35.473Z,3.90
2019-04-22T04:12:49.426Z,4.00
2019-04-22T04:15:21.266Z,4.10
2019-04-22T04:17:51.485Z,4.10
2019-04-22T04:20:23.831Z,4.10
2019-04-22T04:23:00.552Z,4.10
2019-04-22T04:25:29.662Z,4.00
2019-04-22T04:30:20.954Z,4.10
2019-04-22T04:37:52.333Z,4.30
2019-04-22T04:45:33.750Z,3.90
2019-04-22T04:47:57.975Z,3.80
2019-04-22T04:50:20.617Z,3.80
2019-04-22T05:00:39.479Z,3.90
2019-04-22T05:02:53.003Z,3.90
2019-04-22T05:22:44.222Z,4.60
2019-04-22T05:25:23.601Z,4.70
2019-04-22T05:30:37.499Z,5.40
2019-04-22T05:32:47.382Z,5.80
2019-04-22T05:35:25.057Z,6.20
2019-04-22T05:40:22.942Z,6.60
2019-04-22T05:42:51.313Z,7.00
2019-04-22T05:47:52.308Z,7.70
2019-04-22T05:50:20.405Z,8.00
2019-04-22T05:52:57.291Z,8.10
2019-04-22T05:55:32.086Z,8.40
2019-04-22T05:57:57.803Z,8.70
2019-04-22T06:01:00.007Z,9.10
2019-04-22T06:02:56.649Z,9.40
2019-04-22T06:05:33.135Z,9.70
2019-04-22T06:08:02.448Z,9.90
2019-04-22T06:10:33.009Z,10.20
2019-04-22T06:12:56.245Z,10.50
2019-04-22T06:15:28.839Z,10.70
2019-04-22T06:18:14.787Z,10.90
2019-04-22T06:20:38.404Z,11.20
2019-04-22T06:25:49.524Z,11.60
2019-04-22T06:28:13.566Z,11.80
2019-04-22T06:33:13.210Z,12.10
2019-04-22T06:38:26.793Z,12.10
2019-04-22T06:40:41.664Z,12.10
2019-04-22T06:43:13.727Z,12.00
2019-04-22T06:45:41.582Z,12.00
2019-04-22T06:50:43.458Z,12.10
2019-04-22T06:53:09.009Z,12.10
2019-04-22T06:55:43.992Z,12.10
2019-04-22T06:58:10.057Z,12.10
2019-04-22T07:00:44.439Z,12.30
2019-04-22T07:03:34.803Z,12.30
2019-04-22T07:05:48.378Z,12.50
2019-04-22T07:09:01.307Z,12.60
2019-04-22T07:10:47.643Z,12.80
2019-04-22T07:13:21.145Z,13.10
2019-04-22T07:15:50.502Z,13.30
2019-04-22T07:18:18.522Z,13.50
2019-04-22T07:20:51.235Z,13.70
2019-04-22T07:23:21.450Z,14.10
2019-04-22T07:25:45.152Z,14.50
2019-04-22T07:28:15.577Z,14.90
2019-04-22T07:30:48.600Z,15.30
2019-04-22T07:35:54.918Z,16.00
2019-04-22T07:38:23.821Z,16.20
2019-04-22T07:45:51.862Z,16.90
2019-04-22T07:48:26.543Z,17.00
2019-04-22T07:51:00.672Z,17.10
2019-04-22T07:53:17.315Z,17.10
2019-04-22T07:55:45.375Z,17.10
2019-04-22T08:00:43.764Z,17.30
2019-04-22T08:03:47.083Z,17.40
2019-04-22T08:05:58.738Z,17.60
2019-04-22T08:11:06.879Z,17.60
2019-04-22T08:13:26.958Z,17.70
2019-04-22T08:15:54.178Z,17.70
2019-04-22T08:20:54.045Z,17.70
2019-04-22T08:23:28.175Z,17.80
2019-04-22T08:25:55.712Z,17.90
2019-04-22T08:28:26.270Z,18.00
2019-04-22T08:30:56.818Z,18.00
2019-04-22T08:33:29.273Z,18.10
2019-04-22T08:36:06.862Z,18.10
2019-04-22T08:38:37.707Z,18.10
2019-04-22T08:41:23.336Z,18.00
2019-04-22T08:43:55.857Z,18.10
2019-04-22T08:46:25.252Z,18.20
2019-04-22T08:48:52.836Z,18.30
2019-04-22T08:51:21.041Z,18.40
2019-04-22T08:53:57.324Z,18.50
2019-04-22T08:58:50.202Z,18.80
2019-04-22T09:01:18.838Z,18.90
2019-04-22T09:03:47.040Z,19.00
2019-04-22T09:08:52.112Z,19.20
2019-04-22T09:11:24.691Z,19.30
2019-04-22T09:13:50.666Z,19.30
2019-04-22T09:16:19.398Z,19.40
2019-04-22T09:18:50.571Z,19.50
2019-04-22T09:21:34.381Z,19.60
2019-04-22T09:23:56.868Z,19.70
2019-04-22T09:26:22.920Z,19.70
2019-04-22T09:28:53.859Z,19.70
2019-04-22T09:31:19.574Z,19.70
2019-04-22T09:33:43.200Z,19.70
2019-04-22T09:36:22.397Z,19.70
2019-04-22T09:38:46.805Z,19.70
2019-04-22T09:41:24.478Z,19.70
2019-04-22T09:43:53.699Z,19.80
2019-04-22T09:46:22.777Z,19.90
2019-04-22T09:48:51.090Z,20.00
2019-04-22T09:51:23.231Z,20.10
2019-04-22T09:53:57.867Z,20.20
2019-04-22T09:56:23.867Z,20.30
2019-04-22T09:58:53.576Z,20.40
2019-04-22T10:03:56.468Z,20.60
2019-04-22T10:06:27.787Z,20.90
2019-04-22T10:09:12.745Z,21.10
2019-04-22T10:11:27.931Z,21.30
2019-04-22T10:13:54.098Z,21.40
2019-04-22T10:16:26.223Z,21.60
2019-04-22T10:18:52.024Z,21.80
2019-04-22T10:21:31.833Z,21.80
2019-04-22T10:23:54.765Z,21.80
2019-04-22T10:26:28.400Z,21.90
2019-04-22T10:31:29.770Z,22.30
2019-04-22T10:33:46.503Z,22.30
2019-04-22T10:35:59.232Z,22.30
2019-04-22T10:38:28.379Z,22.20
2019-04-22T10:40:58.369Z,22.20
2019-04-22T10:43:27.555Z,22.20
2019-04-22T10:45:56.165Z,22.20
2019-04-22T10:48:26.075Z,22.20
2019-04-22T10:50:54.863Z,22.30
2019-04-22T10:53:23.831Z,22.40
2019-04-22T10:55:52.468Z,22.60
2019-04-22T10:58:21.371Z,22.80
2019-04-22T11:00:52.268Z,22.90
2019-04-22T11:03:22.490Z,23.00
2019-04-22T11:05:53.792Z,23.00
2019-04-22T11:08:31.539Z,23.00
2019-04-22T11:11:09.382Z,23.10
2019-04-22T11:13:22.228Z,23.30
2019-04-22T11:15:51.028Z,23.40
2019-04-22T11:18:19.915Z,23.40
2019-04-22T11:20:49.542Z,23.40
2019-04-22T11:23:18.623Z,23.40
2019-04-22T11:25:48.013Z,23.40
2019-04-22T11:28:17.959Z,23.50
2019-04-22T11:30:46.505Z,23.60
2019-04-22T11:33:16.258Z,23.60
2019-04-22T11:35:45.914Z,23.60
2019-04-22T11:38:15.105Z,23.50
2019-04-22T11:40:49.764Z,23.50
2019-04-22T11:43:14.583Z,23.60
2019-04-22T11:45:43.108Z,23.60
2019-04-22T11:48:13.151Z,23.70
2019-04-22T11:50:42.106Z,23.60
2019-04-22T11:53:10.989Z,23.50
2019-04-22T11:55:40.592Z,23.50
2019-04-22T11:58:10.553Z,23.40
2019-04-22T12:00:39.333Z,23.40
2019-04-22T12:03:09.200Z,23.40
2019-04-22T12:05:37.876Z,23.40
2019-04-22T12:08:07.270Z,23.40
2019-04-22T12:10:44.058Z,23.50
2019-04-22T12:13:06.365Z,23.70
2019-04-22T12:15:35.211Z,23.90
2019-04-22T12:18:04.252Z,24.00
2019-04-22T12:20:32.986Z,24.20
2019-04-22T12:23:03.133Z,24.40
2019-04-22T12:25:41.945Z,24.50
2019-04-22T12:28:03.245Z,24.50
2019-04-22T12:30:33.273Z,24.70
2019-04-22T12:33:02.424Z,24.90
2019-04-22T12:35:32.524Z,24.90
2019-04-22T12:38:06.101Z,24.90
2019-04-22T12:40:41.216Z,24.90
2019-04-22T12:43:04.659Z,24.80
2019-04-22T12:45:31.972Z,24.90
2019-04-22T12:48:00.476Z,24.90
2019-04-22T12:50:33.866Z,24.80
2019-04-22T12:53:03.662Z,24.70
2019-04-22T12:55:30.271Z,24.70
2019-04-22T12:58:00.916Z,24.70
2019-04-22T13:00:30.121Z,24.60
2019-04-22T13:02:58.947Z,24.70
2019-04-22T13:05:29.282Z,24.70
2019-04-22T13:07:57.874Z,24.80
2019-04-22T13:10:39.106Z,24.90
2019-04-22T13:12:56.993Z,24.90
2019-04-22T13:15:28.777Z,25.00
2019-04-22T13:18:05.779Z,25.00
2019-04-22T13:20:28.195Z,25.00
2019-04-22T13:22:57.068Z,25.20
2019-04-22T13:25:28.309Z,25.30
2019-04-22T13:27:57.400Z,25.30
2019-04-22T13:30:28.429Z,25.30
2019-04-22T13:32:56.960Z,25.30
2019-04-22T13:35:26.266Z,25.40
2019-04-22T13:37:57.226Z,25.50
2019-04-22T13:40:26.051Z,25.50
2019-04-22T13:42:55.581Z,25.40
2019-04-22T13:45:25.571Z,25.50
2019-04-22T13:48:11.217Z,25.60
2019-04-22T13:53:42.603Z,25.70
2019-04-22T13:55:54.741Z,25.70
2019-04-22T13:58:08.703Z,25.70
2019-04-22T14:00:36.627Z,25.60
2019-04-22T14:03:08.728Z,25.60
2019-04-22T14:05:40.414Z,25.70
2019-04-22T14:08:10.743Z,25.80
2019-04-22T14:10:40.476Z,25.90
2019-04-22T14:13:09.947Z,26.00
2019-04-22T14:15:40.138Z,26.20
2019-04-22T14:18:08.836Z,26.30
2019-04-22T14:20:38.570Z,26.40
2019-04-22T14:23:08.342Z,26.40
2019-04-22T14:25:38.631Z,26.50
2019-04-22T14:28:13.130Z,26.50
2019-04-22T14:30:38.783Z,26.40
2019-04-22T14:33:07.385Z,26.30
2019-04-22T14:35:38.005Z,26.20
2019-04-22T14:38:06.455Z,26.20
2019-04-22T14:40:36.659Z,26.00
2019-04-22T14:43:25.212Z,26.00
2019-04-22T14:48:36.241Z,25.80
2019-04-22T14:50:57.636Z,25.70
2019-04-22T14:53:27.574Z,25.70
2019-04-22T14:55:38.299Z,25.50
2019-04-22T14:58:07.056Z,25.40
2019-04-22T15:00:35.876Z,25.30
2019-04-22T15:03:05.761Z,25.20
2019-04-22T15:05:34.440Z,25.10
2019-04-22T15:08:03.286Z,24.90
2019-04-22T15:10:31.922Z,24.90
2019-04-22T15:13:00.800Z,24.90
2019-04-22T15:15:49.284Z,25.00
2019-04-22T15:18:19.867Z,25.10
2019-04-22T15:20:52.323Z,25.30
2019-04-22T15:23:20.473Z,25.70
2019-04-22T15:25:50.638Z,26.30
2019-04-22T15:28:19.633Z,26.20
2019-04-22T15:30:48.293Z,26.30
2019-04-22T15:33:17.247Z,26.20
2019-04-22T15:35:47.116Z,26.10
2019-04-22T15:38:15.775Z,25.90
2019-04-22T15:40:44.826Z,25.60
2019-04-22T15:43:14.841Z,25.60
2019-04-22T15:45:43.454Z,25.40
2019-04-22T15:48:11.973Z,25.40
2019-04-22T15:50:40.581Z,25.30
2019-04-22T15:53:09.781Z,25.30
2019-04-22T15:55:38.936Z,25.40
2019-04-22T15:58:07.969Z,25.50
2019-04-22T16:00:49.074Z,25.40
2019-04-22T16:03:10.076Z,25.40
2019-04-22T16:05:36.951Z,25.30
2019-04-22T16:08:06.743Z,25.10
2019-04-22T16:10:35.655Z,24.90
2019-04-22T16:13:11.535Z,24.80
2019-04-22T16:15:34.505Z,24.70
2019-04-22T16:18:06.477Z,24.60
2019-04-22T16:20:34.337Z,24.50
2019-04-22T16:23:05.579Z,24.40
2019-04-22T16:25:49.255Z,24.40
2019-04-22T16:28:19.410Z,24.30
2019-04-22T16:30:48.969Z,24.30
2019-04-22T16:33:17.693Z,24.20
2019-04-22T16:35:46.769Z,24.20
2019-04-22T16:38:15.408Z,24.30
2019-04-22T16:40:45.001Z,24.30
2019-04-22T16:43:13.672Z,24.30
2019-04-22T16:45:43.529Z,24.20
2019-04-22T16:48:13.538Z,24.10
2019-04-22T16:50:43.661Z,24.10
2019-04-22T16:53:14.135Z,24.00
2019-04-22T16:55:42.781Z,24.00
2019-04-22T16:58:12.702Z,23.90
2019-04-22T17:00:42.749Z,23.80
2019-04-22T17:03:13.141Z,23.70
2019-04-22T17:05:59.584Z,23.60
2019-04-22T17:08:28.589Z,23.60
2019-04-22T17:10:57.683Z,23.50
2019-04-22T17:13:30.298Z,23.50
2019-04-22T17:15:59.073Z,23.50
2019-04-22T17:18:27.351Z,23.30
2019-04-22T17:20:56.008Z,23.20
2019-04-22T17:23:25.543Z,23.10
2019-04-22T17:25:54.443Z,23.10
2019-04-22T17:28:23.534Z,23.00
2019-04-22T17:30:52.123Z,23.00
2019-04-22T17:33:20.972Z,22.90
2019-04-22T17:35:50.366Z,22.80
2019-04-22T17:38:27.383Z,22.80
2019-04-22T17:41:05.774Z,22.70
2019-04-22T17:43:52.827Z,22.60
2019-04-22T17:46:10.896Z,22.50
2019-04-22T17:48:53.499Z,22.40
2019-04-22T17:51:29.411Z,22.30
2019-04-22T17:53:57.765Z,22.20
2019-04-22T17:56:27.911Z,22.10
2019-04-22T17:58:57.359Z,22.00
2019-04-22T18:01:41.715Z,21.90
2019-04-22T18:03:43.617Z,21.80
2019-04-22T18:06:14.179Z,21.70
2019-04-22T18:08:54.903Z,21.70
2019-04-22T18:11:35.351Z,21.60
2019-04-22T18:14:00.417Z,21.50
2019-04-22T18:16:30.561Z,21.40
2019-04-22T18:18:59.867Z,21.30
2019-04-22T18:21:25.205Z,21.20
2019-04-22T18:23:49.352Z,21.00
2019-04-22T18:26:27.670Z,21.00
2019-04-22T18:29:02.150Z,20.90
2019-04-22T18:31:21.760Z,20.70
2019-04-22T18:33:58.845Z,20.60
2019-04-22T18:36:22.783Z,20.50
2019-04-22T18:39:04.486Z,20.30
2019-04-22T18:41:30.454Z,20.10
2019-04-22T18:43:59.886Z,19.80
2019-04-22T18:46:28.854Z,19.50
2019-04-22T18:49:03.409Z,19.20
2019-04-22T18:51:47.748Z,18.90
2019-04-22T18:54:18.215Z,18.60
2019-04-22T18:56:50.406Z,18.30
2019-04-22T18:59:17.335Z,18.00
2019-04-22T19:01:37.784Z,17.80
2019-04-22T19:04:15.197Z,17.60
2019-04-22T19:07:00.414Z,17.40
2019-04-22T19:09:34.985Z,17.30
2019-04-22T19:12:09.044Z,17.30
2019-04-22T19:14:35.055Z,17.20
2019-04-22T19:17:11.894Z,17.00
2019-04-22T19:19:35.302Z,16.80
2019-04-22T19:21:58.909Z,16.70
2019-04-22T19:24:28.925Z,16.60
2019-04-22T19:27:02.967Z,16.50
2019-04-22T19:29:31.219Z,16.30
2019-04-22T19:32:01.307Z,16.30
2019-04-22T19:34:32.020Z,16.20
2019-04-22T19:37:03.590Z,16.10
2019-04-22T19:39:28.776Z,15.90
2019-04-22T19:42:15.074Z,15.80
2019-04-22T19:44:34.266Z,15.70
2019-04-22T19:47:21.374Z,15.50
2019-04-22T19:49:39.525Z,15.30
2019-04-22T19:52:11.435Z,15.00
2019-04-22T19:54:34.162Z,14.70
2019-04-22T19:56:57.176Z,14.60
2019-04-22T19:59:25.269Z,14.50
2019-04-22T20:02:18.440Z,14.40
2019-04-22T20:04:59.673Z,14.30
2019-04-22T20:07:21.214Z,14.10
2019-04-22T20:09:58.717Z,14.00
2019-04-22T20:12:24.724Z,13.90
2019-04-22T20:14:54.465Z,13.90
2019-04-22T20:17:26.683Z,13.80
2019-04-22T20:20:18.116Z,13.90
2019-04-22T20:22:26.693Z,13.80
2019-04-22T20:24:47.090Z,13.70
2019-04-22T20:27:35.186Z,13.50
2019-04-22T20:30:01.858Z,13.50
2019-04-22T20:32:29.243Z,13.40
2019-04-22T20:35:02.791Z,13.40
2019-04-22T20:37:35.687Z,13.30
2019-04-22T20:40:00.510Z,13.20
2019-04-22T20:42:48.951Z,13.10
2019-04-22T20:44:58.528Z,13.10
2019-04-22T20:47:22.049Z,13.00
2019-04-22T20:49:58.953Z,12.90
2019-04-22T20:52:38.673Z,12.80
2019-04-22T20:55:01.475Z,12.70
2019-04-22T20:57:35.309Z,12.60
2019-04-22T20:59:55.929Z,12.60
2019-04-22T21:02:28.852Z,12.50
2019-04-22T21:04:53.698Z,12.40
2019-04-22T21:07:26.595Z,12.30
2019-04-22T21:10:06.551Z,12.30
2019-04-22T21:12:24.964Z,12.30
2019-04-22T21:15:08.087Z,12.30
2019-04-22T21:17:34.870Z,12.30
2019-04-22T21:20:06.856Z,12.30
2019-04-22T21:22:33.905Z,12.30
2019-04-22T21:25:03.566Z,12.20
2019-04-22T21:27:40.434Z,12.20
2019-04-22T21:30:00.086Z,12.20
2019-04-22T21:32:34.540Z,12.20
2019-04-22T21:35:14.433Z,12.20
2019-04-22T21:37:43.255Z,12.20
2019-04-22T21:40:06.863Z,12.30
2019-04-22T21:42:48.860Z,12.30
2019-04-22T21:45:05.507Z,12.30
2019-04-22T21:47:41.939Z,12.30
2019-04-22T21:50:28.345Z,12.30
2019-04-22T21:52:42.550Z,12.40
2019-04-22T21:55:16.671Z,12.50
2019-04-22T21:57:52.642Z,12.60
2019-04-22T22:00:22.671Z,12.70
2019-04-22T22:02:45.636Z,12.90
2019-04-22T22:05:08.243Z,13.30
2019-04-22T22:07:27.680Z,13.60
2019-04-22T22:10:11.680Z,14.10
2019-04-22T22:12:52.468Z,14.70
2019-04-22T22:15:13.516Z,15.30
2019-04-22T22:17:44.262Z,15.70
2019-04-22T22:20:13.526Z,16.00
2019-04-22T22:25:14.446Z,16.20
2019-04-22T22:27:40.551Z,16.30
2019-04-22T22:30:40.060Z,16.50
2019-04-22T22:32:47.475Z,16.60
2019-04-22T22:35:13.286Z,16.70
2019-04-22T22:37:44.483Z,16.70
2019-04-22T22:40:05.547Z,16.70
2019-04-22T22:42:35.829Z,16.70
2019-04-22T22:45:07.929Z,16.60
2019-04-22T22:47:44.173Z,16.70
2019-04-22T22:50:17.595Z,16.60
2019-04-22T22:55:20.170Z,16.60
2019-04-22T22:57:56.732Z,16.70
2019-04-22T23:00:18.437Z,16.60
2019-04-22T23:03:00.569Z,16.60
2019-04-22T23:05:15.552Z,16.80
2019-04-22T23:07:55.530Z,16.70
2019-04-22T23:10:17.509Z,16.70
2019-04-22T23:13:00.412Z,16.70
2019-04-22T23:15:18.475Z,16.70
2019-04-22T23:17:33.426Z,16.70
2019-04-22T23:20:00.043Z,16.60
2019-04-22T23:22:48.496Z,16.60
2019-04-22T23:25:24.806Z,16.60
2019-04-22T23:27:57.098Z,16.60
2019-04-22T23:30:35.917Z,16.60
2019-04-22T23:33:13.192Z,16.50
2019-04-22T23:35:43.072Z,16.40
2019-04-22T23:38:20.038Z,16.40
2019-04-22T23:40:52.774Z,16.20
2019-04-22T23:45:51.967Z,16.10
2019-04-22T23:48:14.132Z,16.00
2019-04-22T23:50:50.830Z,16.00
2019-04-22T23:53:55.867Z,16.00
2019-04-22T23:56:03.205Z,15.90
2019-04-22T23:58:49.174Z,15.90
